createdAt,value
2023-03-07T00:00:13.387Z,99719.91
2023-03-07T00:02:42.125Z,99706.66
2023-03-07T00:05:10.817Z,99710.22
2023-03-07T00:07:39.068Z,99711.94
2023-03-07T00:10:09.292Z,99716.28
2023-03-07T00:12:38.978Z,99715.47
2023-03-07T00:15:10.141Z,99714.72
2023-03-07T00:17:38.911Z,99712.09
2023-03-07T00:20:10.870Z,99706.81
2023-03-07T00:22:39.148Z,99706.16
2023-03-07T00:25:08.380Z,99711.28
2023-03-07T00:27:38.317Z,99714.03
2023-03-07T00:30:08.053Z,99708.59
2023-03-07T00:32:36.426Z,99706.94
2023-03-07T00:35:04.997Z,99700.78
2023-03-07T00:37:33.283Z,99708.59
2023-03-07T00:40:01.568Z,99706.69
2023-03-07T00:42:29.924Z,99700.53
2023-03-07T00:44:59.611Z,99703.97
2023-03-07T00:47:27.911Z,99690.97
2023-03-07T00:49:56.240Z,99694.34
2023-03-07T00:52:24.900Z,99692.75
2023-03-07T00:54:53.201Z,99689.31
2023-03-07T00:57:21.806Z,99691.91
2023-03-07T00:59:50.137Z,99692.88
2023-03-07T01:02:19.835Z,99692.91
2023-03-07T01:04:48.420Z,99697.91
2023-03-07T01:07:16.684Z,99677.00
2023-03-07T01:09:47.226Z,99682.22
2023-03-07T01:12:15.610Z,99690.09
2023-03-07T01:14:43.894Z,99680.41
2023-03-07T01:17:12.369Z,99678.75
2023-03-07T01:19:42.145Z,99667.38
2023-03-07T01:22:10.495Z,99671.69
2023-03-07T01:24:40.227Z,99656.91
2023-03-07T01:27:08.557Z,99672.53
2023-03-07T01:29:36.950Z,99669.06
2023-03-07T01:32:05.482Z,99666.53
2023-03-07T01:34:34.078Z,99669.09
2023-03-07T01:37:03.880Z,99666.41
2023-03-07T01:39:32.809Z,99659.47
2023-03-07T01:42:08.562Z,99653.34
2023-03-07T01:45:02.576Z,99653.41
2023-03-07T01:47:48.474Z,99646.38
2023-03-07T01:50:19.507Z,99643.66
2023-03-07T01:52:51.534Z,99635.69
2023-03-07T01:55:23.332Z,99630.50
2023-03-07T01:57:56.407Z,99638.38
2023-03-07T02:00:29.798Z,99632.09
2023-03-07T02:03:07.966Z,99626.81
2023-03-07T02:05:41.108Z,99627.78
2023-03-07T02:08:15.285Z,99629.53
2023-03-07T02:10:44.696Z,99626.94
2023-03-07T02:13:13.062Z,99628.63
2023-03-07T02:15:42.186Z,99619.78
2023-03-07T02:18:11.138Z,99622.38
2023-03-07T02:20:48.266Z,99620.59
2023-03-07T02:23:26.722Z,99613.59
2023-03-07T02:26:01.554Z,99617.22
2023-03-07T02:28:31.908Z,99615.41
2023-03-07T02:31:03.269Z,99618.16
2023-03-07T02:33:34.832Z,99618.94
2023-03-07T02:36:12.094Z,99601.56
2023-03-07T02:38:48.963Z,99610.31
2023-03-07T02:41:22.166Z,99608.66
2023-03-07T02:43:51.844Z,99586.00
2023-03-07T02:46:20.408Z,99593.59
2023-03-07T02:48:48.961Z,99601.66
2023-03-07T02:51:18.116Z,99599.91
2023-03-07T02:53:47.456Z,99599.78
2023-03-07T02:56:15.911Z,99601.56
2023-03-07T02:58:44.572Z,99591.22
2023-03-07T03:01:14.497Z,99585.09
2023-03-07T03:03:43.100Z,99590.28
2023-03-07T03:06:11.502Z,99603.56
2023-03-07T03:08:39.761Z,99591.22
2023-03-07T03:11:08.238Z,99584.34
2023-03-07T03:13:39.002Z,99590.47
2023-03-07T03:16:08.926Z,99581.84
2023-03-07T03:18:39.145Z,99584.38
2023-03-07T03:21:11.716Z,99580.63
2023-03-07T03:23:40.862Z,99572.81
2023-03-07T03:26:12.497Z,99576.22
2023-03-07T03:28:41.353Z,99581.47
2023-03-07T03:31:15.156Z,99573.69
2023-03-07T03:33:46.150Z,99579.31
2023-03-07T03:36:18.015Z,99568.97
2023-03-07T03:38:49.673Z,99576.00
2023-03-07T03:41:18.149Z,99560.38
2023-03-07T03:43:49.065Z,99575.13
2023-03-07T03:46:19.570Z,99571.75
2023-03-07T03:48:53.871Z,99581.19
2023-03-07T03:51:25.645Z,99556.75
2023-03-07T03:53:57.581Z,99573.34
2023-03-07T03:56:28.258Z,99567.34
2023-03-07T03:58:58.589Z,99575.19
2023-03-07T04:01:28.256Z,99450.81
2023-03-07T04:03:59.840Z,99566.59
2023-03-07T04:06:31.341Z,99563.66
2023-03-07T04:09:00.541Z,99567.84
2023-03-07T04:11:28.968Z,99568.84
2023-03-07T04:13:57.392Z,99565.44
2023-03-07T04:16:25.926Z,99562.88
2023-03-07T04:18:55.417Z,99554.34
2023-03-07T04:21:25.425Z,99563.75
2023-03-07T04:23:58.330Z,99467.28
2023-03-07T04:26:30.034Z,99551.53
2023-03-07T04:28:59.567Z,99561.00
2023-03-07T04:31:32.572Z,99554.91
2023-03-07T04:34:03.319Z,99555.56
2023-03-07T04:36:33.732Z,99537.94
2023-03-07T04:39:02.165Z,99541.78
2023-03-07T04:41:32.466Z,99567.88
2023-03-07T04:44:05.483Z,99541.41
2023-03-07T04:46:33.820Z,99536.47
2023-03-07T04:49:02.177Z,99539.22
2023-03-07T04:51:30.859Z,99542.72
2023-03-07T04:54:00.543Z,99538.31
2023-03-07T04:56:29.073Z,99540.94
2023-03-07T04:58:58.441Z,99542.09
2023-03-07T05:01:26.827Z,99543.13
2023-03-07T05:03:56.538Z,99552.72
2023-03-07T05:06:25.741Z,99549.19
2023-03-07T05:08:54.233Z,99537.84
2023-03-07T05:11:23.943Z,99553.59
2023-03-07T05:13:53.681Z,99551.13
2023-03-07T05:16:23.809Z,99547.00
2023-03-07T05:18:52.040Z,99553.31
2023-03-07T05:21:20.890Z,99551.66
2023-03-07T05:23:49.827Z,99557.88
2023-03-07T05:26:18.187Z,99556.13
2023-03-07T05:28:48.221Z,99553.50
2023-03-07T05:31:18.460Z,99551.84
2023-03-07T05:33:47.536Z,99564.19
2023-03-07T05:36:16.523Z,99501.31
2023-03-07T05:38:45.078Z,99564.19
2023-03-07T05:41:13.973Z,99443.78
2023-03-07T05:43:43.881Z,99451.63
2023-03-07T05:46:13.660Z,99565.69
2023-03-07T05:48:42.150Z,99563.09
2023-03-07T05:51:11.500Z,99560.38
2023-03-07T05:53:40.155Z,99562.00
2023-03-07T05:56:09.164Z,99567.44
2023-03-07T05:58:38.882Z,99571.94
2023-03-07T06:01:07.503Z,99567.63
2023-03-07T06:03:37.591Z,99568.63
2023-03-07T06:06:06.574Z,99567.75
2023-03-07T06:08:34.965Z,99565.06
2023-03-07T06:11:03.239Z,99560.81
2023-03-07T06:13:31.996Z,99566.00
2023-03-07T06:16:00.341Z,99559.00
2023-03-07T06:18:28.955Z,99563.25
2023-03-07T06:21:00.960Z,99568.53
2023-03-07T06:23:35.153Z,99551.97
2023-03-07T06:26:04.873Z,99549.28
2023-03-07T06:28:33.551Z,99566.63
2023-03-07T06:31:08.450Z,99563.94
2023-03-07T06:33:37.040Z,99568.50
2023-03-07T06:36:09.963Z,99564.91
2023-03-07T06:38:40.142Z,99566.53
2023-03-07T06:41:09.172Z,99563.34
2023-03-07T06:43:37.601Z,99549.28
2023-03-07T06:46:07.438Z,99545.69
2023-03-07T06:48:39.804Z,99548.38
2023-03-07T06:51:13.529Z,99568.41
2023-03-07T06:53:43.940Z,99563.03
2023-03-07T06:56:12.410Z,99564.03
2023-03-07T06:58:41.683Z,99557.13
2023-03-07T07:01:18.557Z,99569.34
2023-03-07T07:03:49.056Z,99567.69
2023-03-07T07:06:19.367Z,99565.84
2023-03-07T07:08:48.977Z,99572.91
2023-03-07T07:11:17.466Z,99578.19
2023-03-07T07:13:46.601Z,99574.72
2023-03-07T07:16:20.153Z,99572.19
2023-03-07T07:18:52.154Z,99582.66
2023-03-07T07:21:22.048Z,99583.44
2023-03-07T07:23:50.434Z,99577.47
2023-03-07T07:26:19.551Z,99586.25
2023-03-07T07:28:48.128Z,99587.19
2023-03-07T07:31:16.546Z,99584.56
2023-03-07T07:33:46.397Z,99581.94
2023-03-07T07:36:16.169Z,99595.94
2023-03-07T07:38:45.932Z,99588.09
2023-03-07T07:41:14.298Z,99597.72
2023-03-07T07:43:42.808Z,99597.66
2023-03-07T07:46:18.456Z,99602.94
2023-03-07T07:48:48.300Z,99604.56
2023-03-07T07:51:18.291Z,99611.53
2023-03-07T07:53:48.279Z,99608.75
2023-03-07T07:56:17.173Z,99612.28
2023-03-07T07:58:45.472Z,99616.56
2023-03-07T08:01:16.724Z,99615.53
2023-03-07T08:03:45.364Z,99617.22
2023-03-07T08:06:14.393Z,99613.03
2023-03-07T08:08:43.106Z,99621.72
2023-03-07T08:11:13.514Z,99616.59
2023-03-07T08:13:43.805Z,99614.88
2023-03-07T08:16:14.876Z,99559.06
2023-03-07T08:18:44.426Z,99610.47
2023-03-07T08:21:13.112Z,99618.25
2023-03-07T08:23:41.475Z,99613.91
2023-03-07T08:26:14.215Z,99613.91
2023-03-07T08:28:43.651Z,99605.03
2023-03-07T08:31:14.751Z,99606.88
2023-03-07T08:33:44.294Z,99607.81
2023-03-07T08:36:12.638Z,99609.59
2023-03-07T08:38:40.958Z,99613.16
2023-03-07T08:41:10.999Z,99607.84
2023-03-07T08:43:40.719Z,99606.09
2023-03-07T08:46:09.102Z,99608.81
2023-03-07T08:48:37.429Z,99600.03
2023-03-07T08:51:08.351Z,99605.19
2023-03-07T08:53:38.770Z,99573.84
2023-03-07T08:56:09.092Z,99597.38
2023-03-07T08:58:38.350Z,99599.09
2023-03-07T09:01:09.242Z,99601.66
2023-03-07T09:03:38.159Z,99603.47
2023-03-07T09:06:11.134Z,99604.34
2023-03-07T09:08:39.531Z,99605.28
2023-03-07T09:11:08.705Z,99614.81
2023-03-07T09:13:49.725Z,99616.59
2023-03-07T09:16:22.391Z,99619.16
2023-03-07T09:18:51.036Z,99616.56
2023-03-07T09:21:19.386Z,99617.41
2023-03-07T09:23:47.719Z,99610.44
2023-03-07T09:26:16.240Z,99613.06
2023-03-07T09:28:44.641Z,99604.31
2023-03-07T09:31:16.294Z,99619.25
2023-03-07T09:33:47.069Z,99648.06
2023-03-07T09:36:16.239Z,99620.00
2023-03-07T09:38:45.037Z,99622.66
2023-03-07T09:41:52.191Z,99645.28
2023-03-07T09:44:34.541Z,99617.25
2023-03-07T09:47:55.125Z,99605.88
2023-03-07T09:50:33.871Z,99613.63
2023-03-07T09:53:05.044Z,99607.56
2023-03-07T09:55:34.054Z,99624.28
2023-03-07T09:58:07.522Z,99632.13
2023-03-07T10:00:40.333Z,99591.16
2023-03-07T10:03:20.484Z,99628.59
2023-03-07T10:05:52.985Z,99617.38
2023-03-07T10:08:23.716Z,99632.19
2023-03-07T10:11:05.010Z,99613.06
2023-03-07T10:13:50.422Z,99619.19
2023-03-07T10:16:29.819Z,99585.22
2023-03-07T10:19:11.599Z,99618.22
2023-03-07T10:21:50.748Z,99625.88
2023-03-07T10:25:04.018Z,99632.88
2023-03-07T10:27:32.967Z,99619.56
2023-03-07T10:30:12.158Z,99617.88
2023-03-07T10:32:45.661Z,99624.72
2023-03-07T10:35:21.046Z,99522.69
2023-03-07T10:37:53.221Z,99632.47
2023-03-07T10:40:28.062Z,99641.19
2023-03-07T10:42:56.756Z,99637.38
2023-03-07T10:45:25.197Z,99628.56
2023-03-07T10:47:53.591Z,99640.50
2023-03-07T10:50:38.971Z,99636.19
2023-03-07T10:53:24.127Z,99638.88
2023-03-07T10:55:52.542Z,99638.13
2023-03-07T10:58:24.478Z,99638.97
2023-03-07T11:01:16.706Z,99634.63
2023-03-07T11:03:54.252Z,99669.59
2023-03-07T11:06:34.320Z,99628.25
2023-03-07T11:09:25.855Z,99622.28
2023-03-07T11:11:58.387Z,99632.03
2023-03-07T11:14:29.328Z,99628.56
2023-03-07T11:17:00.608Z,99628.56
2023-03-07T11:19:40.532Z,99629.31
2023-03-07T11:22:28.486Z,99637.03
2023-03-07T11:25:03.373Z,99632.72
2023-03-07T11:27:40.781Z,99637.19
2023-03-07T11:30:26.175Z,99640.75
2023-03-07T11:33:03.337Z,99643.34
2023-03-07T11:35:54.394Z,99648.75
2023-03-07T11:38:42.638Z,99632.91
2023-03-07T11:41:17.840Z,99640.06
2023-03-07T11:44:06.903Z,99642.72
2023-03-07T11:47:00.921Z,99634.91
2023-03-07T11:49:45.266Z,99634.16
2023-03-07T11:52:39.267Z,99651.66
2023-03-07T11:55:25.824Z,99651.59
2023-03-07T11:58:14.384Z,99653.28
2023-03-07T12:00:58.527Z,99656.59
2023-03-07T12:04:06.970Z,99659.13
2023-03-07T12:06:40.946Z,99664.28
2023-03-07T12:09:32.482Z,99664.19
2023-03-07T12:12:41.617Z,99661.00
2023-03-07T12:15:29.336Z,99647.94
2023-03-07T12:18:25.849Z,99672.41
2023-03-07T12:21:05.462Z,99662.94
2023-03-07T12:23:39.100Z,99659.59
2023-03-07T12:26:16.952Z,99659.66
2023-03-07T12:28:50.995Z,99665.63
2023-03-07T12:31:28.147Z,99656.88
2023-03-07T12:34:05.123Z,99662.06
2023-03-07T12:36:40.558Z,99663.78
2023-03-07T12:39:20.634Z,99674.31
2023-03-07T12:41:59.631Z,99674.34
2023-03-07T12:44:41.165Z,99671.84
2023-03-07T12:47:22.999Z,99666.50
2023-03-07T12:49:58.051Z,99666.44
2023-03-07T12:52:41.485Z,99671.69
2023-03-07T12:55:21.500Z,99667.25
2023-03-07T12:57:59.171Z,99661.91
2023-03-07T13:00:27.578Z,99659.22
2023-03-07T13:03:02.559Z,99658.28
2023-03-07T13:05:32.114Z,99666.19
2023-03-07T13:08:01.285Z,99652.19
2023-03-07T13:10:31.537Z,99656.41
2023-03-07T13:12:59.860Z,99656.38
2023-03-07T13:16:04.855Z,99658.00
2023-03-07T13:18:34.609Z,99657.16
2023-03-07T13:21:16.623Z,99664.06
2023-03-07T13:23:45.041Z,99665.75
2023-03-07T13:26:15.223Z,99663.22
2023-03-07T13:28:51.629Z,99664.13
2023-03-07T13:31:44.768Z,99672.25
2023-03-07T13:34:48.873Z,99673.38
2023-03-07T13:37:59.952Z,99668.19
2023-03-07T13:40:55.712Z,99705.81
2023-03-07T13:43:51.163Z,99677.69
2023-03-07T13:46:58.885Z,99678.59
2023-03-07T13:49:49.646Z,99683.00
2023-03-07T13:52:45.240Z,99683.84
2023-03-07T13:55:29.523Z,99688.94
2023-03-07T13:58:05.501Z,99688.06
2023-03-07T14:00:39.428Z,99692.50
2023-03-07T14:03:33.039Z,99694.34
2023-03-07T14:06:10.036Z,99699.63
2023-03-07T14:08:39.247Z,99681.38
2023-03-07T14:11:16.026Z,99688.31
2023-03-07T14:14:18.947Z,99692.69
2023-03-07T14:17:20.211Z,99690.03
2023-03-07T14:20:02.105Z,99690.06
2023-03-07T14:22:49.070Z,99690.91
2023-03-07T14:25:21.310Z,99686.56
2023-03-07T14:27:55.503Z,99695.22
2023-03-07T14:30:25.855Z,99704.03
2023-03-07T14:32:54.269Z,99689.16
2023-03-07T14:35:37.392Z,99724.09
2023-03-07T14:38:10.099Z,99699.56
2023-03-07T14:40:50.520Z,99698.69
2023-03-07T14:43:45.663Z,99687.38
2023-03-07T14:46:25.070Z,99704.88
2023-03-07T14:49:14.666Z,99697.84
2023-03-07T14:51:45.692Z,99691.78
2023-03-07T14:54:21.544Z,99693.56
2023-03-07T14:56:53.234Z,99692.66
2023-03-07T14:59:28.563Z,99693.53
2023-03-07T15:02:00.101Z,99691.72
2023-03-07T15:04:31.525Z,99703.03
2023-03-07T15:07:03.807Z,99703.91
2023-03-07T15:09:36.190Z,99691.59
2023-03-07T15:12:08.445Z,99702.88
2023-03-07T15:14:45.424Z,99706.38
2023-03-07T15:17:18.531Z,99649.63
2023-03-07T15:19:50.542Z,99707.91
2023-03-07T15:22:25.177Z,99708.84
2023-03-07T15:24:55.755Z,99711.53
2023-03-07T15:27:26.407Z,99710.81
2023-03-07T15:29:56.013Z,99721.19
2023-03-07T15:32:36.639Z,99712.53
2023-03-07T15:35:15.997Z,99714.22
2023-03-07T15:37:56.487Z,99722.13
2023-03-07T15:40:31.427Z,99716.97
2023-03-07T15:43:14.844Z,99725.59
2023-03-07T15:45:45.261Z,99711.66
2023-03-07T15:48:26.184Z,99715.06
2023-03-07T15:50:57.274Z,99586.84
2023-03-07T15:53:30.067Z,99697.63
2023-03-07T15:56:03.355Z,99713.28
2023-03-07T15:58:33.703Z,99718.59
2023-03-07T16:01:20.652Z,99726.50
2023-03-07T16:03:53.690Z,99632.25
2023-03-07T16:06:37.013Z,99729.88
2023-03-07T16:09:05.993Z,99731.59
2023-03-07T16:11:38.027Z,99727.25
2023-03-07T16:14:06.673Z,99725.50
2023-03-07T16:16:35.183Z,99552.88
2023-03-07T16:19:03.623Z,99729.91
2023-03-07T16:21:32.009Z,99701.16
2023-03-07T16:24:00.307Z,99723.88
2023-03-07T16:26:29.484Z,99723.94
2023-03-07T16:29:01.829Z,99724.91
2023-03-07T16:31:30.367Z,99737.97
2023-03-07T16:33:58.800Z,99733.66
2023-03-07T16:36:27.172Z,99706.63
2023-03-07T16:38:55.494Z,99732.81
2023-03-07T16:41:24.166Z,99737.16
2023-03-07T16:43:55.110Z,99738.09
2023-03-07T16:46:25.914Z,99740.78
2023-03-07T16:48:54.312Z,99740.72
2023-03-07T16:51:26.017Z,99734.59
2023-03-07T16:53:56.716Z,99740.69
2023-03-07T16:56:30.224Z,99733.72
2023-03-07T16:58:59.385Z,99748.47
2023-03-07T17:01:29.571Z,99723.31
2023-03-07T17:03:57.936Z,99750.34
2023-03-07T17:06:38.472Z,99760.84
2023-03-07T17:09:09.518Z,99775.66
2023-03-07T17:11:41.011Z,99774.81
2023-03-07T17:14:14.255Z,99780.06
2023-03-07T17:16:47.006Z,99780.91
2023-03-07T17:19:25.933Z,99784.41
2023-03-07T17:21:54.265Z,99777.44
2023-03-07T17:24:22.710Z,99779.16
2023-03-07T17:26:53.484Z,99782.75
2023-03-07T17:29:28.272Z,99790.59
2023-03-07T17:31:58.009Z,99774.91
2023-03-07T17:34:28.791Z,99781.94
2023-03-07T17:36:57.538Z,99808.13
2023-03-07T17:39:26.446Z,99806.34
2023-03-07T17:41:54.808Z,99806.31
2023-03-07T17:44:23.165Z,99813.34
2023-03-07T17:46:52.703Z,99808.09
2023-03-07T17:49:23.119Z,99807.22
2023-03-07T17:51:52.953Z,99820.38
2023-03-07T17:54:21.514Z,99823.00
2023-03-07T17:56:49.975Z,99830.84
2023-03-07T17:59:18.298Z,99839.63
2023-03-07T18:01:46.801Z,99831.75
2023-03-07T18:04:15.545Z,99842.25
2023-03-07T18:06:45.203Z,99838.72
2023-03-07T18:09:15.306Z,99847.47
2023-03-07T18:11:43.756Z,99852.72
2023-03-07T18:14:12.668Z,99851.81
2023-03-07T18:16:41.019Z,99853.59
2023-03-07T18:19:20.458Z,99848.31
2023-03-07T18:21:55.625Z,99851.84
2023-03-07T18:24:27.352Z,99846.59
2023-03-07T18:26:56.877Z,99852.72
2023-03-07T18:29:25.880Z,99851.84
2023-03-07T18:31:54.447Z,99856.22
2023-03-07T18:34:24.753Z,99852.72
2023-03-07T18:36:54.882Z,99843.94
2023-03-07T18:39:24.578Z,99856.19
2023-03-07T18:41:53.124Z,99849.22
2023-03-07T18:44:21.572Z,99854.44
2023-03-07T18:46:49.930Z,99848.31
2023-03-07T18:49:18.349Z,99858.81
2023-03-07T18:51:48.358Z,99828.19
2023-03-07T18:54:18.226Z,99860.56
2023-03-07T18:56:47.805Z,99866.69
2023-03-07T18:59:17.283Z,99859.69
2023-03-07T19:01:50.150Z,99864.91
2023-03-07T19:04:20.273Z,99869.31
2023-03-07T19:06:48.649Z,99866.69
2023-03-07T19:09:21.373Z,99872.81
2023-03-07T19:11:49.714Z,99871.06
2023-03-07T19:14:18.179Z,99874.59
2023-03-07T19:16:46.713Z,99876.34
2023-03-07T19:19:15.005Z,99877.19
2023-03-07T19:21:43.457Z,99883.31
2023-03-07T19:24:13.169Z,99837.00
2023-03-07T19:26:43.337Z,99877.19
2023-03-07T19:29:13.135Z,99878.94
2023-03-07T19:31:43.753Z,99881.56
2023-03-07T19:34:12.509Z,99884.19
2023-03-07T19:36:41.550Z,99892.03
2023-03-07T19:39:14.961Z,99886.78
2023-03-07T19:41:47.858Z,99894.66
2023-03-07T19:44:17.276Z,99896.34
2023-03-07T19:46:47.275Z,99916.50
2023-03-07T19:49:18.851Z,99897.22
2023-03-07T19:51:47.224Z,99887.59
2023-03-07T19:54:16.423Z,99898.97
2023-03-07T19:56:46.285Z,99899.00
2023-03-07T19:59:15.108Z,99904.25
2023-03-07T20:01:43.455Z,99899.00
2023-03-07T20:04:13.133Z,99892.91
2023-03-07T20:06:43.145Z,99899.88
2023-03-07T20:09:13.195Z,99896.38
2023-03-07T20:11:43.843Z,99898.09
2023-03-07T20:14:14.102Z,99899.00
2023-03-07T20:16:42.671Z,99905.97
2023-03-07T20:19:14.471Z,99897.22
2023-03-07T20:21:49.648Z,99901.59
2023-03-07T20:24:18.482Z,99893.78
2023-03-07T20:26:47.955Z,99903.34
2023-03-07T20:29:17.672Z,99902.50
2023-03-07T20:31:46.041Z,99878.03
2023-03-07T20:34:14.321Z,99909.53
2023-03-07T20:36:43.970Z,99906.94
2023-03-07T20:39:15.555Z,99905.16
2023-03-07T20:41:45.070Z,99906.91
2023-03-07T20:44:15.627Z,99901.69
2023-03-07T20:46:45.199Z,99896.44
2023-03-07T20:49:15.556Z,99899.03
2023-03-07T20:51:45.070Z,99899.03
2023-03-07T20:54:15.852Z,99892.94
2023-03-07T20:56:45.830Z,99885.06
2023-03-07T20:59:16.604Z,99884.19
2023-03-07T21:01:46.621Z,99894.69
2023-03-07T21:04:17.808Z,99847.47
2023-03-07T21:06:46.713Z,99895.56
2023-03-07T21:09:17.556Z,99899.06
2023-03-07T21:11:49.023Z,99898.19
2023-03-07T21:14:19.035Z,99902.53
2023-03-07T21:16:49.028Z,99911.28
2023-03-07T21:19:17.477Z,99907.78
2023-03-07T21:21:46.252Z,99909.53
2023-03-07T21:24:15.493Z,99909.53
2023-03-07T21:26:44.294Z,99911.28
2023-03-07T21:29:13.973Z,99909.53
2023-03-07T21:31:42.460Z,99918.22
2023-03-07T21:34:15.445Z,99909.50
2023-03-07T21:36:43.973Z,99903.34
2023-03-07T21:39:12.917Z,99909.50
2023-03-07T21:41:41.410Z,99909.50
2023-03-07T21:44:11.037Z,99921.69
2023-03-07T21:46:39.397Z,99918.16
2023-03-07T21:49:07.941Z,99920.66
2023-03-07T21:51:37.641Z,99918.09
2023-03-07T21:54:07.003Z,99911.06
2023-03-07T21:56:35.410Z,99912.81
2023-03-07T21:59:04.596Z,99889.13
2023-03-07T22:01:36.585Z,99918.84
2023-03-07T22:04:05.014Z,99912.75
2023-03-07T22:06:33.262Z,99915.34
2023-03-07T22:09:03.141Z,99909.31
2023-03-07T22:11:31.423Z,99915.41
2023-03-07T22:13:59.760Z,99911.94
2023-03-07T22:16:28.066Z,99916.34
2023-03-07T22:18:57.400Z,99909.34
2023-03-07T22:21:26.722Z,99920.69
2023-03-07T22:23:57.934Z,99908.44
2023-03-07T22:26:29.432Z,99921.56
2023-03-07T22:28:58.099Z,99925.97
2023-03-07T22:31:27.196Z,99918.09
2023-03-07T22:33:55.604Z,99928.63
2023-03-07T22:36:23.966Z,99933.00
2023-03-07T22:38:56.112Z,99932.16
2023-03-07T22:41:27.399Z,99905.91
2023-03-07T22:43:55.649Z,99938.28
2023-03-07T22:46:24.612Z,99934.78
2023-03-07T22:48:54.032Z,99932.19
2023-03-07T22:51:24.382Z,99916.44
2023-03-07T22:53:53.313Z,99933.06
2023-03-07T22:56:24.202Z,99924.34
2023-03-07T22:58:54.059Z,99924.34
2023-03-07T23:01:25.201Z,99911.25
2023-03-07T23:03:55.734Z,99914.72
2023-03-07T23:06:25.526Z,99908.59
2023-03-07T23:08:54.921Z,99910.31
2023-03-07T23:11:25.579Z,99897.22
2023-03-07T23:13:55.949Z,99904.19
2023-03-07T23:16:27.384Z,99906.81
2023-03-07T23:18:59.398Z,99895.47
2023-03-07T23:21:30.729Z,99905.94
2023-03-07T23:24:01.217Z,99898.97
2023-03-07T23:26:32.697Z,99897.19
2023-03-07T23:29:03.090Z,99891.06
2023-03-07T23:31:34.737Z,99896.28
2023-03-07T23:34:07.118Z,99892.81
2023-03-07T23:36:36.895Z,99881.44
2023-03-07T23:39:05.761Z,99890.16
2023-03-07T23:41:34.075Z,99896.28
2023-03-07T23:44:04.158Z,99887.50
2023-03-07T23:46:33.429Z,99893.66
2023-03-07T23:49:01.856Z,99898.91
2023-03-07T23:51:30.551Z,99906.78
2023-03-07T23:53:58.851Z,99900.69
2023-03-07T23:56:27.138Z,99905.03
2023-03-07T23:58:55.837Z,99891.06
